sensor_id;sensor_type;location;lat;lon;timestamp;P1;durP1;ratioP1;P2;durP2;ratioP2
28009;SDS011;15334;49.494;8.410;2023-06-26T00:00:02;10.52;;;5.28;;
28009;SDS011;15334;49.494;8.410;2023-06-26T00:02:31;10.60;;;4.80;;
28009;SDS011;15334;49.494;8.410;2023-06-26T00:05:01;8.93;;;5.10;;
28009;SDS011;15334;49.494;8.410;2023-06-26T00:07:29;11.73;;;5.47;;
28009;SDS011;15334;49.494;8.410;2023-06-26T00:10:00;9.23;;;4.72;;
28009;SDS011;15334;49.494;8.410;2023-06-26T00:12:29;7.78;;;4.82;;
28009;SDS011;15334;49.494;8.410;2023-06-26T00:14:57;8.25;;;4.60;;
28009;SDS011;15334;49.494;8.410;2023-06-26T00:17:25;14.23;;;4.95;;
28009;SDS011;15334;49.494;8.410;2023-06-26T00:19:53;12.07;;;4.43;;
28009;SDS011;15334;49.494;8.410;2023-06-26T00:22:23;12.80;;;5.13;;
28009;SDS011;15334;49.494;8.410;2023-06-26T00:24:50;11.10;;;5.63;;
28009;SDS011;15334;49.494;8.410;2023-06-26T00:27:19;11.23;;;5.45;;
28009;SDS011;15334;49.494;8.410;2023-06-26T00:29:46;14.60;;;5.28;;
28009;SDS011;15334;49.494;8.410;2023-06-26T00:32:14;14.27;;;5.47;;
28009;SDS011;15334;49.494;8.410;2023-06-26T00:34:42;9.57;;;5.20;;
28009;SDS011;15334;49.494;8.410;2023-06-26T00:37:13;9.45;;;5.45;;
28009;SDS011;15334;49.494;8.410;2023-06-26T00:39:42;10.63;;;4.70;;
28009;SDS011;15334;49.494;8.410;2023-06-26T00:42:10;8.82;;;4.97;;
28009;SDS011;15334;49.494;8.410;2023-06-26T00:44:38;9.93;;;4.75;;
28009;SDS011;15334;49.494;8.410;2023-06-26T00:47:06;10.35;;;4.85;;
28009;SDS011;15334;49.494;8.410;2023-06-26T00:49:34;12.13;;;5.22;;
28009;SDS011;15334;49.494;8.410;2023-06-26T00:52:02;9.63;;;4.45;;
28009;SDS011;15334;49.494;8.410;2023-06-26T00:54:30;10.18;;;4.88;;
28009;SDS011;15334;49.494;8.410;2023-06-26T00:57:00;9.82;;;4.85;;
28009;SDS011;15334;49.494;8.410;2023-06-26T00:59:28;10.00;;;5.03;;
28009;SDS011;15334;49.494;8.410;2023-06-26T01:01:56;9.13;;;4.85;;
28009;SDS011;15334;49.494;8.410;2023-06-26T01:04:24;8.95;;;4.75;;
28009;SDS011;15334;49.494;8.410;2023-06-26T01:06:54;9.20;;;4.65;;
28009;SDS011;15334;49.494;8.410;2023-06-26T01:09:23;10.52;;;4.20;;
28009;SDS011;15334;49.494;8.410;2023-06-26T01:11:51;11.15;;;5.15;;
28009;SDS011;15334;49.494;8.410;2023-06-26T01:14:21;8.57;;;4.63;;
28009;SDS011;15334;49.494;8.410;2023-06-26T01:16:48;10.32;;;5.13;;
28009;SDS011;15334;49.494;8.410;2023-06-26T01:19:19;9.52;;;4.20;;
28009;SDS011;15334;49.494;8.410;2023-06-26T01:21:53;9.57;;;4.45;;
28009;SDS011;15334;49.494;8.410;2023-06-26T01:24:25;14.93;;;5.25;;
28009;SDS011;15334;49.494;8.410;2023-06-26T01:27:04;11.32;;;5.90;;
28009;SDS011;15334;49.494;8.410;2023-06-26T01:29:33;12.23;;;5.78;;
28009;SDS011;15334;49.494;8.410;2023-06-26T01:32:02;11.63;;;5.05;;
28009;SDS011;15334;49.494;8.410;2023-06-26T01:34:30;10.48;;;5.13;;
28009;SDS011;15334;49.494;8.410;2023-06-26T01:36:59;13.25;;;5.82;;
28009;SDS011;15334;49.494;8.410;2023-06-26T01:39:27;10.80;;;5.18;;
28009;SDS011;15334;49.494;8.410;2023-06-26T01:41:55;8.20;;;4.88;;
28009;SDS011;15334;49.494;8.410;2023-06-26T01:44:26;8.20;;;4.88;;
28009;SDS011;15334;49.494;8.410;2023-06-26T01:47:00;9.32;;;5.22;;
28009;SDS011;15334;49.494;8.410;2023-06-26T01:49:31;9.93;;;5.22;;
28009;SDS011;15334;49.494;8.410;2023-06-26T01:52:07;12.20;;;5.68;;
28009;SDS011;15334;49.494;8.410;2023-06-26T01:54:42;13.68;;;5.93;;
28009;SDS011;15334;49.494;8.410;2023-06-26T01:57:20;9.57;;;5.47;;
28009;SDS011;15334;49.494;8.410;2023-06-26T01:59:52;14.35;;;6.10;;
28009;SDS011;15334;49.494;8.410;2023-06-26T02:02:22;9.40;;;5.75;;
28009;SDS011;15334;49.494;8.410;2023-06-26T02:04:51;10.70;;;4.93;;
28009;SDS011;15334;49.494;8.410;2023-06-26T02:07:19;11.27;;;5.15;;
28009;SDS011;15334;49.494;8.410;2023-06-26T02:09:47;12.82;;;5.85;;
28009;SDS011;15334;49.494;8.410;2023-06-26T02:12:15;12.88;;;5.57;;
28009;SDS011;15334;49.494;8.410;2023-06-26T02:14:43;10.77;;;4.97;;
28009;SDS011;15334;49.494;8.410;2023-06-26T02:17:12;9.40;;;5.43;;
28009;SDS011;15334;49.494;8.410;2023-06-26T02:19:40;11.88;;;6.13;;
28009;SDS011;15334;49.494;8.410;2023-06-26T02:22:13;10.57;;;5.55;;
28009;SDS011;15334;49.494;8.410;2023-06-26T02:24:42;10.07;;;5.82;;
28009;SDS011;15334;49.494;8.410;2023-06-26T02:27:10;9.70;;;5.20;;
28009;SDS011;15334;49.494;8.410;2023-06-26T02:29:39;10.27;;;5.57;;
28009;SDS011;15334;49.494;8.410;2023-06-26T02:32:07;10.20;;;5.05;;
28009;SDS011;15334;49.494;8.410;2023-06-26T02:34:37;10.10;;;5.45;;
28009;SDS011;15334;49.494;8.410;2023-06-26T02:37:05;10.23;;;4.88;;
28009;SDS011;15334;49.494;8.410;2023-06-26T02:39:34;10.57;;;4.95;;
28009;SDS011;15334;49.494;8.410;2023-06-26T02:42:02;10.43;;;5.65;;
28009;SDS011;15334;49.494;8.410;2023-06-26T02:44:30;11.13;;;6.15;;
28009;SDS011;15334;49.494;8.410;2023-06-26T02:46:58;13.10;;;5.38;;
28009;SDS011;15334;49.494;8.410;2023-06-26T02:49:26;9.98;;;5.32;;
28009;SDS011;15334;49.494;8.410;2023-06-26T02:51:55;10.38;;;5.93;;
28009;SDS011;15334;49.494;8.410;2023-06-26T02:54:23;11.82;;;5.50;;
28009;SDS011;15334;49.494;8.410;2023-06-26T02:56:51;9.48;;;5.40;;
28009;SDS011;15334;49.494;8.410;2023-06-26T02:59:19;8.18;;;4.43;;
28009;SDS011;15334;49.494;8.410;2023-06-26T03:01:47;10.45;;;5.93;;
28009;SDS011;15334;49.494;8.410;2023-06-26T03:04:15;10.32;;;5.65;;
28009;SDS011;15334;49.494;8.410;2023-06-26T03:06:44;12.20;;;6.65;;
28009;SDS011;15334;49.494;8.410;2023-06-26T03:09:13;11.43;;;6.18;;
28009;SDS011;15334;49.494;8.410;2023-06-26T03:11:42;19.40;;;6.18;;
28009;SDS011;15334;49.494;8.410;2023-06-26T03:14:10;9.32;;;5.65;;
28009;SDS011;15334;49.494;8.410;2023-06-26T03:16:38;11.27;;;5.63;;
28009;SDS011;15334;49.494;8.410;2023-06-26T03:19:06;11.40;;;5.80;;
28009;SDS011;15334;49.494;8.410;2023-06-26T03:21:34;10.25;;;5.40;;
28009;SDS011;15334;49.494;8.410;2023-06-26T03:24:02;10.95;;;6.13;;
28009;SDS011;15334;49.494;8.410;2023-06-26T03:26:32;12.30;;;6.38;;
28009;SDS011;15334;49.494;8.410;2023-06-26T03:29:00;9.98;;;5.80;;
28009;SDS011;15334;49.494;8.410;2023-06-26T03:31:28;10.10;;;5.55;;
28009;SDS011;15334;49.494;8.410;2023-06-26T03:33:56;12.55;;;6.15;;
28009;SDS011;15334;49.494;8.410;2023-06-26T03:36:24;11.00;;;5.32;;
28009;SDS011;15334;49.494;8.410;2023-06-26T03:38:52;12.20;;;6.00;;
28009;SDS011;15334;49.494;8.410;2023-06-26T03:41:23;11.98;;;5.97;;
28009;SDS011;15334;49.494;8.410;2023-06-26T03:43:52;11.07;;;6.05;;
28009;SDS011;15334;49.494;8.410;2023-06-26T03:46:21;10.48;;;5.35;;
28009;SDS011;15334;49.494;8.410;2023-06-26T03:48:49;8.75;;;5.68;;
28009;SDS011;15334;49.494;8.410;2023-06-26T03:51:17;12.63;;;5.82;;
28009;SDS011;15334;49.494;8.410;2023-06-26T03:53:47;11.65;;;5.90;;
28009;SDS011;15334;49.494;8.410;2023-06-26T03:56:15;13.18;;;6.10;;
28009;SDS011;15334;49.494;8.410;2023-06-26T03:58:43;11.02;;;5.78;;
28009;SDS011;15334;49.494;8.410;2023-06-26T04:01:12;9.23;;;5.45;;
28009;SDS011;15334;49.494;8.410;2023-06-26T04:03:40;10.55;;;5.93;;
28009;SDS011;15334;49.494;8.410;2023-06-26T04:06:08;11.82;;;6.25;;
28009;SDS011;15334;49.494;8.410;2023-06-26T04:08:36;11.55;;;5.10;;
28009;SDS011;15334;49.494;8.410;2023-06-26T04:11:04;10.27;;;5.60;;
28009;SDS011;15334;49.494;8.410;2023-06-26T04:13:32;9.55;;;5.68;;
28009;SDS011;15334;49.494;8.410;2023-06-26T04:16:00;10.48;;;6.13;;
28009;SDS011;15334;49.494;8.410;2023-06-26T04:18:30;12.13;;;5.88;;
28009;SDS011;15334;49.494;8.410;2023-06-26T04:21:05;12.40;;;5.57;;
28009;SDS011;15334;49.494;8.410;2023-06-26T04:23:34;12.55;;;5.57;;
28009;SDS011;15334;49.494;8.410;2023-06-26T04:26:03;14.18;;;5.95;;
28009;SDS011;15334;49.494;8.410;2023-06-26T04:28:32;11.48;;;5.55;;
28009;SDS011;15334;49.494;8.410;2023-06-26T04:31:00;9.30;;;5.93;;
28009;SDS011;15334;49.494;8.410;2023-06-26T04:33:31;11.68;;;5.57;;
28009;SDS011;15334;49.494;8.410;2023-06-26T04:35:59;9.55;;;5.18;;
28009;SDS011;15334;49.494;8.410;2023-06-26T04:38:29;12.05;;;5.03;;
28009;SDS011;15334;49.494;8.410;2023-06-26T04:40:58;8.77;;;4.90;;
28009;SDS011;15334;49.494;8.410;2023-06-26T04:43:26;11.18;;;5.50;;
28009;SDS011;15334;49.494;8.410;2023-06-26T04:45:54;8.55;;;4.80;;
28009;SDS011;15334;49.494;8.410;2023-06-26T04:48:22;12.77;;;5.72;;
28009;SDS011;15334;49.494;8.410;2023-06-26T04:50:51;8.13;;;5.03;;
28009;SDS011;15334;49.494;8.410;2023-06-26T04:53:20;12.27;;;5.45;;
28009;SDS011;15334;49.494;8.410;2023-06-26T04:55:49;9.60;;;5.25;;
28009;SDS011;15334;49.494;8.410;2023-06-26T04:58:18;11.50;;;5.45;;
28009;SDS011;15334;49.494;8.410;2023-06-26T05:00:46;11.18;;;6.03;;
28009;SDS011;15334;49.494;8.410;2023-06-26T05:03:15;12.02;;;5.68;;
28009;SDS011;15334;49.494;8.410;2023-06-26T05:05:44;14.00;;;5.65;;
28009;SDS011;15334;49.494;8.410;2023-06-26T05:08:14;10.82;;;5.88;;
28009;SDS011;15334;49.494;8.410;2023-06-26T05:10:43;9.23;;;5.45;;
28009;SDS011;15334;49.494;8.410;2023-06-26T05:13:12;9.32;;;5.55;;
28009;SDS011;15334;49.494;8.410;2023-06-26T05:15:43;10.70;;;5.40;;
28009;SDS011;15334;49.494;8.410;2023-06-26T05:18:11;12.55;;;6.03;;
28009;SDS011;15334;49.494;8.410;2023-06-26T05:20:40;9.85;;;5.78;;
28009;SDS011;15334;49.494;8.410;2023-06-26T05:23:08;9.13;;;5.28;;
28009;SDS011;15334;49.494;8.410;2023-06-26T05:25:40;11.75;;;6.63;;
28009;SDS011;15334;49.494;8.410;2023-06-26T05:28:09;13.73;;;6.03;;
28009;SDS011;15334;49.494;8.410;2023-06-26T05:30:38;9.93;;;5.68;;
28009;SDS011;15334;49.494;8.410;2023-06-26T05:33:07;10.05;;;4.78;;
28009;SDS011;15334;49.494;8.410;2023-06-26T05:35:38;9.70;;;4.90;;
28009;SDS011;15334;49.494;8.410;2023-06-26T05:38:07;11.15;;;6.13;;
28009;SDS011;15334;49.494;8.410;2023-06-26T05:40:35;10.85;;;5.07;;
28009;SDS011;15334;49.494;8.410;2023-06-26T05:43:06;15.00;;;5.97;;
28009;SDS011;15334;49.494;8.410;2023-06-26T05:45:34;10.82;;;5.63;;
28009;SDS011;15334;49.494;8.410;2023-06-26T05:48:02;10.48;;;6.18;;
28009;SDS011;15334;49.494;8.410;2023-06-26T05:50:31;11.70;;;6.07;;
28009;SDS011;15334;49.494;8.410;2023-06-26T05:53:00;13.32;;;6.05;;
28009;SDS011;15334;49.494;8.410;2023-06-26T05:55:29;13.25;;;6.35;;
28009;SDS011;15334;49.494;8.410;2023-06-26T05:57:57;13.05;;;6.53;;
28009;SDS011;15334;49.494;8.410;2023-06-26T06:00:28;12.10;;;5.75;;
28009;SDS011;15334;49.494;8.410;2023-06-26T06:02:57;10.60;;;5.55;;
28009;SDS011;15334;49.494;8.410;2023-06-26T06:05:25;13.10;;;5.88;;
28009;SDS011;15334;49.494;8.410;2023-06-26T06:07:53;9.77;;;5.60;;
28009;SDS011;15334;49.494;8.410;2023-06-26T06:10:21;10.88;;;5.70;;
28009;SDS011;15334;49.494;8.410;2023-06-26T06:12:49;13.30;;;5.70;;
28009;SDS011;15334;49.494;8.410;2023-06-26T06:15:16;10.18;;;5.07;;
28009;SDS011;15334;49.494;8.410;2023-06-26T06:17:46;9.52;;;5.10;;
28009;SDS011;15334;49.494;8.410;2023-06-26T06:20:14;10.90;;;5.47;;
28009;SDS011;15334;49.494;8.410;2023-06-26T06:22:42;12.32;;;5.65;;
28009;SDS011;15334;49.494;8.410;2023-06-26T06:25:10;9.43;;;5.45;;
28009;SDS011;15334;49.494;8.410;2023-06-26T06:27:38;9.45;;;5.43;;
28009;SDS011;15334;49.494;8.410;2023-06-26T06:30:07;11.15;;;5.43;;
28009;SDS011;15334;49.494;8.410;2023-06-26T06:32:35;9.85;;;5.78;;
28009;SDS011;15334;49.494;8.410;2023-06-26T06:35:05;11.57;;;6.22;;
28009;SDS011;15334;49.494;8.410;2023-06-26T06:37:36;13.77;;;7.07;;
28009;SDS011;15334;49.494;8.410;2023-06-26T06:40:05;11.35;;;5.95;;
28009;SDS011;15334;49.494;8.410;2023-06-26T06:42:34;11.88;;;6.20;;
28009;SDS011;15334;49.494;8.410;2023-06-26T06:45:03;21.63;;;5.70;;
28009;SDS011;15334;49.494;8.410;2023-06-26T06:47:31;17.92;;;5.85;;
28009;SDS011;15334;49.494;8.410;2023-06-26T06:50:00;10.63;;;5.57;;
28009;SDS011;15334;49.494;8.410;2023-06-26T06:52:36;10.85;;;5.82;;
28009;SDS011;15334;49.494;8.410;2023-06-26T06:55:07;16.05;;;6.00;;
28009;SDS011;15334;49.494;8.410;2023-06-26T06:57:36;10.35;;;5.03;;
28009;SDS011;15334;49.494;8.410;2023-06-26T07:00:05;12.23;;;5.70;;
28009;SDS011;15334;49.494;8.410;2023-06-26T07:02:36;11.50;;;5.88;;
28009;SDS011;15334;49.494;8.410;2023-06-26T07:05:04;10.98;;;5.65;;
28009;SDS011;15334;49.494;8.410;2023-06-26T07:07:32;9.60;;;5.35;;
28009;SDS011;15334;49.494;8.410;2023-06-26T07:10:03;10.93;;;5.75;;
28009;SDS011;15334;49.494;8.410;2023-06-26T07:12:33;12.43;;;5.22;;
28009;SDS011;15334;49.494;8.410;2023-06-26T07:15:01;11.60;;;5.78;;
28009;SDS011;15334;49.494;8.410;2023-06-26T07:17:31;8.43;;;4.45;;
28009;SDS011;15334;49.494;8.410;2023-06-26T07:20:00;11.70;;;5.60;;
28009;SDS011;15334;49.494;8.410;2023-06-26T07:22:30;8.65;;;5.00;;
28009;SDS011;15334;49.494;8.410;2023-06-26T07:24:58;9.48;;;4.68;;
28009;SDS011;15334;49.494;8.410;2023-06-26T07:27:27;12.80;;;5.93;;
28009;SDS011;15334;49.494;8.410;2023-06-26T07:29:56;11.15;;;5.55;;
28009;SDS011;15334;49.494;8.410;2023-06-26T07:32:24;11.88;;;5.18;;
28009;SDS011;15334;49.494;8.410;2023-06-26T07:34:52;10.77;;;5.35;;
28009;SDS011;15334;49.494;8.410;2023-06-26T07:37:20;9.07;;;4.85;;
28009;SDS011;15334;49.494;8.410;2023-06-26T07:39:48;10.85;;;5.45;;
28009;SDS011;15334;49.494;8.410;2023-06-26T07:42:16;9.05;;;5.07;;
28009;SDS011;15334;49.494;8.410;2023-06-26T07:44:46;9.68;;;5.10;;
28009;SDS011;15334;49.494;8.410;2023-06-26T07:47:19;12.65;;;5.32;;
28009;SDS011;15334;49.494;8.410;2023-06-26T07:49:47;9.32;;;5.40;;
28009;SDS011;15334;49.494;8.410;2023-06-26T07:52:15;8.57;;;5.40;;
28009;SDS011;15334;49.494;8.410;2023-06-26T07:54:43;8.40;;;4.47;;
28009;SDS011;15334;49.494;8.410;2023-06-26T07:57:11;9.20;;;5.15;;
28009;SDS011;15334;49.494;8.410;2023-06-26T07:59:39;11.32;;;4.55;;
28009;SDS011;15334;49.494;8.410;2023-06-26T08:02:09;9.68;;;4.93;;
28009;SDS011;15334;49.494;8.410;2023-06-26T08:04:37;7.13;;;4.40;;
28009;SDS011;15334;49.494;8.410;2023-06-26T08:07:05;10.07;;;4.55;;
28009;SDS011;15334;49.494;8.410;2023-06-26T08:09:33;11.07;;;5.68;;
28009;SDS011;15334;49.494;8.410;2023-06-26T08:12:01;7.82;;;4.50;;
28009;SDS011;15334;49.494;8.410;2023-06-26T08:14:29;7.45;;;4.32;;
28009;SDS011;15334;49.494;8.410;2023-06-26T08:16:57;8.15;;;4.63;;
28009;SDS011;15334;49.494;8.410;2023-06-26T08:19:28;10.63;;;4.60;;
28009;SDS011;15334;49.494;8.410;2023-06-26T08:21:56;8.10;;;4.60;;
28009;SDS011;15334;49.494;8.410;2023-06-26T08:24:24;8.65;;;4.93;;
28009;SDS011;15334;49.494;8.410;2023-06-26T08:26:52;13.60;;;4.75;;
28009;SDS011;15334;49.494;8.410;2023-06-26T08:29:20;9.10;;;4.40;;
28009;SDS011;15334;49.494;8.410;2023-06-26T08:31:47;8.75;;;4.70;;
28009;SDS011;15334;49.494;8.410;2023-06-26T08:34:16;7.32;;;4.57;;
28009;SDS011;15334;49.494;8.410;2023-06-26T08:36:45;9.55;;;5.18;;
28009;SDS011;15334;49.494;8.410;2023-06-26T08:39:13;10.40;;;5.22;;
28009;SDS011;15334;49.494;8.410;2023-06-26T08:41:41;8.68;;;4.70;;
28009;SDS011;15334;49.494;8.410;2023-06-26T08:44:09;10.20;;;4.78;;
28009;SDS011;15334;49.494;8.410;2023-06-26T08:46:38;10.60;;;5.40;;
28009;SDS011;15334;49.494;8.410;2023-06-26T08:49:08;7.78;;;4.20;;
28009;SDS011;15334;49.494;8.410;2023-06-26T08:51:42;12.25;;;5.03;;
28009;SDS011;15334;49.494;8.410;2023-06-26T08:54:14;8.67;;;5.07;;
28009;SDS011;15334;49.494;8.410;2023-06-26T08:56:44;9.70;;;5.03;;
28009;SDS011;15334;49.494;8.410;2023-06-26T08:59:16;7.90;;;4.35;;
28009;SDS011;15334;49.494;8.410;2023-06-26T09:01:44;7.75;;;4.07;;
28009;SDS011;15334;49.494;8.410;2023-06-26T09:04:13;7.53;;;4.68;;
28009;SDS011;15334;49.494;8.410;2023-06-26T09:06:42;6.50;;;4.20;;
28009;SDS011;15334;49.494;8.410;2023-06-26T09:09:11;9.18;;;4.38;;
28009;SDS011;15334;49.494;8.410;2023-06-26T09:11:40;6.43;;;3.85;;
28009;SDS011;15334;49.494;8.410;2023-06-26T09:14:09;8.15;;;4.50;;
28009;SDS011;15334;49.494;8.410;2023-06-26T09:16:40;7.35;;;3.90;;
28009;SDS011;15334;49.494;8.410;2023-06-26T09:19:09;7.30;;;4.00;;
28009;SDS011;15334;49.494;8.410;2023-06-26T09:21:39;10.02;;;4.43;;
28009;SDS011;15334;49.494;8.410;2023-06-26T09:24:07;7.47;;;4.63;;
28009;SDS011;15334;49.494;8.410;2023-06-26T09:26:36;9.98;;;4.72;;
28009;SDS011;15334;49.494;8.410;2023-06-26T09:29:07;7.35;;;4.22;;
28009;SDS011;15334;49.494;8.410;2023-06-26T09:31:36;5.95;;;3.97;;
28009;SDS011;15334;49.494;8.410;2023-06-26T09:34:08;7.40;;;4.18;;
28009;SDS011;15334;49.494;8.410;2023-06-26T09:36:37;7.97;;;4.47;;
28009;SDS011;15334;49.494;8.410;2023-06-26T09:39:06;10.50;;;4.65;;
28009;SDS011;15334;49.494;8.410;2023-06-26T09:41:38;8.13;;;4.57;;
28009;SDS011;15334;49.494;8.410;2023-06-26T09:44:10;6.78;;;4.60;;
28009;SDS011;15334;49.494;8.410;2023-06-26T09:46:39;8.50;;;4.75;;
28009;SDS011;15334;49.494;8.410;2023-06-26T09:49:08;8.52;;;4.70;;
28009;SDS011;15334;49.494;8.410;2023-06-26T09:51:38;9.60;;;4.80;;
28009;SDS011;15334;49.494;8.410;2023-06-26T09:54:07;7.88;;;4.55;;
28009;SDS011;15334;49.494;8.410;2023-06-26T09:56:36;10.25;;;5.13;;
28009;SDS011;15334;49.494;8.410;2023-06-26T09:59:05;7.70;;;4.60;;
28009;SDS011;15334;49.494;8.410;2023-06-26T10:01:39;8.50;;;5.03;;
28009;SDS011;15334;49.494;8.410;2023-06-26T10:04:08;8.13;;;4.68;;
28009;SDS011;15334;49.494;8.410;2023-06-26T10:06:40;6.80;;;4.65;;
28009;SDS011;15334;49.494;8.410;2023-06-26T10:09:12;8.15;;;4.82;;
28009;SDS011;15334;49.494;8.410;2023-06-26T10:11:46;7.57;;;4.93;;
28009;SDS011;15334;49.494;8.410;2023-06-26T10:14:18;9.98;;;4.78;;
28009;SDS011;15334;49.494;8.410;2023-06-26T10:16:49;10.48;;;5.00;;
28009;SDS011;15334;49.494;8.410;2023-06-26T10:19:18;9.05;;;5.20;;
28009;SDS011;15334;49.494;8.410;2023-06-26T10:21:51;11.45;;;5.18;;
28009;SDS011;15334;49.494;8.410;2023-06-26T10:24:20;10.25;;;5.15;;
28009;SDS011;15334;49.494;8.410;2023-06-26T10:26:51;7.38;;;5.30;;
28009;SDS011;15334;49.494;8.410;2023-06-26T10:29:24;10.82;;;5.05;;
28009;SDS011;15334;49.494;8.410;2023-06-26T10:31:55;10.48;;;5.43;;
28009;SDS011;15334;49.494;8.410;2023-06-26T10:34:29;8.10;;;4.70;;
28009;SDS011;15334;49.494;8.410;2023-06-26T10:36:58;8.98;;;4.22;;
28009;SDS011;15334;49.494;8.410;2023-06-26T10:42:14;8.13;;;4.65;;
28009;SDS011;15334;49.494;8.410;2023-06-26T10:44:43;8.68;;;4.82;;
28009;SDS011;15334;49.494;8.410;2023-06-26T10:47:28;9.45;;;5.20;;
28009;SDS011;15334;49.494;8.410;2023-06-26T10:50:12;12.15;;;5.85;;
28009;SDS011;15334;49.494;8.410;2023-06-26T10:53:08;9.10;;;4.70;;
28009;SDS011;15334;49.494;8.410;2023-06-26T10:55:37;11.32;;;5.35;;
28009;SDS011;15334;49.494;8.410;2023-06-26T11:03:56;7.97;;;4.60;;
28009;SDS011;15334;49.494;8.410;2023-06-26T11:06:30;8.27;;;5.05;;
28009;SDS011;15334;49.494;8.410;2023-06-26T11:09:00;8.73;;;4.60;;
28009;SDS011;15334;49.494;8.410;2023-06-26T11:14:28;8.73;;;4.32;;
28009;SDS011;15334;49.494;8.410;2023-06-26T11:16:58;8.13;;;3.88;;
28009;SDS011;15334;49.494;8.410;2023-06-26T11:19:30;8.23;;;4.25;;
28009;SDS011;15334;49.494;8.410;2023-06-26T11:21:59;9.32;;;3.90;;
28009;SDS011;15334;49.494;8.410;2023-06-26T11:24:31;7.82;;;4.30;;
28009;SDS011;15334;49.494;8.410;2023-06-26T11:27:01;7.35;;;3.80;;
28009;SDS011;15334;49.494;8.410;2023-06-26T11:29:30;7.82;;;3.80;;
28009;SDS011;15334;49.494;8.410;2023-06-26T11:32:01;7.22;;;3.20;;
28009;SDS011;15334;49.494;8.410;2023-06-26T11:34:33;6.00;;;3.50;;
28009;SDS011;15334;49.494;8.410;2023-06-26T11:37:04;9.82;;;3.90;;
28009;SDS011;15334;49.494;8.410;2023-06-26T11:39:32;10.73;;;4.03;;
28009;SDS011;15334;49.494;8.410;2023-06-26T11:42:00;7.90;;;3.72;;
28009;SDS011;15334;49.494;8.410;2023-06-26T11:44:29;6.88;;;3.70;;
28009;SDS011;15334;49.494;8.410;2023-06-26T11:46:57;5.57;;;3.22;;
28009;SDS011;15334;49.494;8.410;2023-06-26T11:49:25;8.18;;;3.45;;
28009;SDS011;15334;49.494;8.410;2023-06-26T11:51:58;8.73;;;3.72;;
28009;SDS011;15334;49.494;8.410;2023-06-26T11:54:26;7.43;;;3.80;;
28009;SDS011;15334;49.494;8.410;2023-06-26T11:56:55;5.63;;;3.35;;
28009;SDS011;15334;49.494;8.410;2023-06-26T11:59:26;7.03;;;3.30;;
28009;SDS011;15334;49.494;8.410;2023-06-26T12:02:00;7.43;;;3.75;;
28009;SDS011;15334;49.494;8.410;2023-06-26T12:04:33;6.10;;;3.03;;
28009;SDS011;15334;49.494;8.410;2023-06-26T12:07:05;7.53;;;3.10;;
28009;SDS011;15334;49.494;8.410;2023-06-26T12:09:37;5.75;;;3.20;;
28009;SDS011;15334;49.494;8.410;2023-06-26T12:12:08;6.78;;;3.80;;
28009;SDS011;15334;49.494;8.410;2023-06-26T12:14:37;8.48;;;4.97;;
28009;SDS011;15334;49.494;8.410;2023-06-26T12:17:08;8.80;;;3.78;;
28009;SDS011;15334;49.494;8.410;2023-06-26T12:19:37;9.50;;;4.00;;
28009;SDS011;15334;49.494;8.410;2023-06-26T12:22:07;7.72;;;3.78;;
28009;SDS011;15334;49.494;8.410;2023-06-26T12:24:37;6.67;;;4.03;;
28009;SDS011;15334;49.494;8.410;2023-06-26T12:27:07;8.18;;;4.43;;
28009;SDS011;15334;49.494;8.410;2023-06-26T12:29:37;6.82;;;4.03;;
28009;SDS011;15334;49.494;8.410;2023-06-26T12:32:08;10.20;;;5.18;;
28009;SDS011;15334;49.494;8.410;2023-06-26T12:34:37;9.25;;;4.38;;
28009;SDS011;15334;49.494;8.410;2023-06-26T12:37:08;8.68;;;4.40;;
28009;SDS011;15334;49.494;8.410;2023-06-26T12:39:45;8.73;;;4.85;;
28009;SDS011;15334;49.494;8.410;2023-06-26T12:42:14;11.68;;;5.47;;
28009;SDS011;15334;49.494;8.410;2023-06-26T12:44:43;12.65;;;5.20;;
28009;SDS011;15334;49.494;8.410;2023-06-26T12:47:13;9.07;;;5.68;;
28009;SDS011;15334;49.494;8.410;2023-06-26T12:49:42;12.40;;;7.10;;
28009;SDS011;15334;49.494;8.410;2023-06-26T12:52:13;11.70;;;6.22;;
28009;SDS011;15334;49.494;8.410;2023-06-26T12:54:42;8.52;;;5.55;;
28009;SDS011;15334;49.494;8.410;2023-06-26T12:57:10;10.43;;;5.90;;
28009;SDS011;15334;49.494;8.410;2023-06-26T12:59:40;9.52;;;5.78;;
28009;SDS011;15334;49.494;8.410;2023-06-26T13:02:09;10.07;;;5.53;;
28009;SDS011;15334;49.494;8.410;2023-06-26T13:04:38;10.50;;;5.45;;
28009;SDS011;15334;49.494;8.410;2023-06-26T13:07:07;10.60;;;5.05;;
28009;SDS011;15334;49.494;8.410;2023-06-26T13:09:37;10.25;;;5.00;;
28009;SDS011;15334;49.494;8.410;2023-06-26T13:12:05;12.85;;;5.13;;
28009;SDS011;15334;49.494;8.410;2023-06-26T13:14:35;11.30;;;5.28;;
28009;SDS011;15334;49.494;8.410;2023-06-26T13:17:04;9.98;;;4.25;;
28009;SDS011;15334;49.494;8.410;2023-06-26T13:19:35;9.87;;;4.90;;
28009;SDS011;15334;49.494;8.410;2023-06-26T13:22:03;10.45;;;4.47;;
28009;SDS011;15334;49.494;8.410;2023-06-26T13:24:32;8.43;;;4.30;;
28009;SDS011;15334;49.494;8.410;2023-06-26T13:27:01;7.20;;;3.78;;
28009;SDS011;15334;49.494;8.410;2023-06-26T13:29:29;9.20;;;4.70;;
28009;SDS011;15334;49.494;8.410;2023-06-26T13:31:58;7.70;;;4.18;;
28009;SDS011;15334;49.494;8.410;2023-06-26T13:34:27;8.75;;;3.45;;
28009;SDS011;15334;49.494;8.410;2023-06-26T13:36:56;7.70;;;3.17;;
28009;SDS011;15334;49.494;8.410;2023-06-26T13:39:26;4.85;;;2.70;;
28009;SDS011;15334;49.494;8.410;2023-06-26T13:41:54;6.38;;;3.13;;
28009;SDS011;15334;49.494;8.410;2023-06-26T13:44:23;6.50;;;2.40;;
28009;SDS011;15334;49.494;8.410;2023-06-26T13:47:11;10.75;;;5.07;;
28009;SDS011;15334;49.494;8.410;2023-06-26T13:49:41;7.10;;;2.78;;
28009;SDS011;15334;49.494;8.410;2023-06-26T13:52:09;6.30;;;2.22;;
28009;SDS011;15334;49.494;8.410;2023-06-26T13:54:37;8.07;;;2.45;;
28009;SDS011;15334;49.494;8.410;2023-06-26T13:57:06;5.43;;;2.15;;
28009;SDS011;15334;49.494;8.410;2023-06-26T13:59:36;6.07;;;1.75;;
28009;SDS011;15334;49.494;8.410;2023-06-26T14:02:06;4.50;;;2.03;;
28009;SDS011;15334;49.494;8.410;2023-06-26T14:04:34;4.78;;;1.80;;
28009;SDS011;15334;49.494;8.410;2023-06-26T14:07:03;2.97;;;1.58;;
28009;SDS011;15334;49.494;8.410;2023-06-26T14:09:32;4.47;;;2.28;;
28009;SDS011;15334;49.494;8.410;2023-06-26T14:12:00;3.70;;;1.70;;
28009;SDS011;15334;49.494;8.410;2023-06-26T14:14:28;6.03;;;1.63;;
28009;SDS011;15334;49.494;8.410;2023-06-26T14:16:57;4.10;;;1.45;;
28009;SDS011;15334;49.494;8.410;2023-06-26T14:19:26;4.78;;;1.83;;
28009;SDS011;15334;49.494;8.410;2023-06-26T14:21:54;5.05;;;1.58;;
28009;SDS011;15334;49.494;8.410;2023-06-26T14:24:22;3.28;;;1.65;;
28009;SDS011;15334;49.494;8.410;2023-06-26T14:26:50;4.57;;;1.65;;
28009;SDS011;15334;49.494;8.410;2023-06-26T14:29:18;5.97;;;2.10;;
28009;SDS011;15334;49.494;8.410;2023-06-26T14:31:47;7.53;;;1.55;;
28009;SDS011;15334;49.494;8.410;2023-06-26T14:34:18;3.63;;;1.50;;
28009;SDS011;15334;49.494;8.410;2023-06-26T14:36:46;4.13;;;1.50;;
28009;SDS011;15334;49.494;8.410;2023-06-26T14:39:14;4.65;;;1.75;;
28009;SDS011;15334;49.494;8.410;2023-06-26T14:41:42;4.50;;;1.58;;
28009;SDS011;15334;49.494;8.410;2023-06-26T14:44:11;5.65;;;1.80;;
28009;SDS011;15334;49.494;8.410;2023-06-26T14:46:39;5.47;;;1.70;;
28009;SDS011;15334;49.494;8.410;2023-06-26T14:49:07;3.10;;;1.63;;
28009;SDS011;15334;49.494;8.410;2023-06-26T14:51:37;4.22;;;1.45;;
28009;SDS011;15334;49.494;8.410;2023-06-26T14:54:06;4.60;;;1.42;;
28009;SDS011;15334;49.494;8.410;2023-06-26T14:56:35;3.47;;;1.45;;
28009;SDS011;15334;49.494;8.410;2023-06-26T14:59:02;4.18;;;1.75;;
28009;SDS011;15334;49.494;8.410;2023-06-26T15:01:30;2.88;;;1.35;;
28009;SDS011;15334;49.494;8.410;2023-06-26T15:03:58;4.63;;;1.40;;